WetterOnline ( https://www.wetteronline.de )

Wetter aktuell Utarp

Aktuelles Wetter: Emden (5m)

6-stündlich | Neueste Meldungen
Ortszeit Temperatur Wetter
Di, 24.11. 19:00 8.7° C bedeckt
Di, 24.11. 13:00 8.8° C bedeckt
Di, 24.11. 7:00 6.4° C bedeckt
Di, 24.11. 1:00 5.3° C bedeckt
Mo, 23.11. 19:00 6.8° C bedeckt
Mo, 23.11. 13:00 9.6° C wolkenlos
Mo, 23.11. 7:00 5.9° C leicht bewölkt
Mo, 23.11. 1:00 5.9° C wolkig
Ortszeit Temperatur Wetter
Di, 24.11. 21:30 6.4° C bedeckt
Di, 24.11. 21:20 6.4° C bedeckt
Di, 24.11. 21:10 6.4° C bedeckt
Di, 24.11. 21:00 6.5° C bedeckt
Di, 24.11. 20:50 6.5° C bedeckt
Di, 24.11. 20:40 6.7° C bedeckt
Di, 24.11. 20:30 7.3° C wolkig
Di, 24.11. 20:00 7.9° C bewölkt
Di, 24.11. 18:00 9.0° C bedeckt
Ortszeit Relative Feuchte Sichtweite
Di, 24.11. 19:00 84% 26 km
Di, 24.11. 13:00 85% 16 km
Di, 24.11. 7:00 94% 7 km
Di, 24.11. 1:00 83% 30 km
Mo, 23.11. 19:00 85% 35 km
Mo, 23.11. 13:00 75% 55 km
Mo, 23.11. 7:00 86% 35 km
Mo, 23.11. 1:00 83% 40 km
Ortszeit Relative Feuchte Sichtweite
Di, 24.11. 21:30 91% 14 km
Di, 24.11. 21:20 91% -
Di, 24.11. 21:10 91% -
Di, 24.11. 21:00 91% 15 km
Di, 24.11. 20:50 91% -
Di, 24.11. 20:40 91% -
Di, 24.11. 20:30 88% 17 km
Di, 24.11. 20:00 86% 19 km
Di, 24.11. 18:00 85% 28 km
Ortszeit Niederschlagsmenge Niederschlagsart
Di, 24.11. 19:00 0.0 l/m2 in 12 Std. -
Di, 24.11. 13:00 0.0 l/m2 in 6 Std. -
Di, 24.11. 7:00 0.0 l/m2 in 12 Std. -
Di, 24.11. 1:00 0.0 l/m2 in 6 Std. -
Mo, 23.11. 19:00 0.1 l/m2 in 12 Std. -
Mo, 23.11. 13:00 0.1 l/m2 in 6 Std. Regen
Mo, 23.11. 7:00 1 l/m2 in 12 Std. Regen
Mo, 23.11. 1:00 0.1 l/m2 in 6 Std. Regen
Ortszeit Niederschlagsmenge Niederschlagsart
Di, 24.11. 21:30 0.0 l/m2 in 1 Std. -
Di, 24.11. 21:20 keine Meldung -
Di, 24.11. 21:10 keine Meldung -
Di, 24.11. 21:00 0.0 l/m2 in 1 Std. -
Di, 24.11. 20:50 keine Meldung -
Di, 24.11. 20:40 keine Meldung -
Di, 24.11. 20:30 0.0 l/m2 in 1 Std. -
Di, 24.11. 20:00 0.0 l/m2 in 1 Std. -
Di, 24.11. 18:00 keine Meldung -
Ortszeit Stärke Spitze Richtung
km/h Bft. km/h Grad Sektor
Di, 24.11. 19:00 13 3 28 180° S
Di, 24.11. 13:00 17 3 35 200° S
Di, 24.11. 7:00 22 4 36 210° SW
Di, 24.11. 1:00 17 3 31 190° S
Mo, 23.11. 19:00 11 2 32 210° SW
Mo, 23.11. 13:00 22 4 32 260° W
Mo, 23.11. 7:00 13 3 31 250° W
Mo, 23.11. 1:00 13 3 30 250° W
Ortszeit Stärke Spitze Richtung
km/h Bft. km/h Grad Sektor
Di, 24.11. 21:30 13 3 22 170° S
Di, 24.11. 21:20 13 3 - 170° S
Di, 24.11. 21:10 13 3 - 170° S
Di, 24.11. 21:00 13 3 26 170° S
Di, 24.11. 20:50 13 3 - 170° S
Di, 24.11. 20:40 14 3 - 170° S
Di, 24.11. 20:30 13 3 26 170° S
Di, 24.11. 20:00 13 3 24 180° S
Di, 24.11. 18:00 14 3 22 180° S
Ortszeit Untergrenze Bedeckung Gattung
total tief tief mittel hoch
Di, 24.11. 19:00 1290 m 8/8 8/8 - - -
Di, 24.11. 13:00 1170 m 8/8 8/8 - - -
Di, 24.11. 7:00 180 m 8/8 8/8 - - -
Di, 24.11. 1:00 1200 m 8/8 8/8 - - -
Mo, 23.11. 19:00 5400 m 8/8 8/8 - - -
Mo, 23.11. 13:00 - 0/8 0/8 - - -
Mo, 23.11. 7:00 990 m 4/8 4/8 - - -
Mo, 23.11. 1:00 990 m 5/8 5/8 - - -
Ortszeit Bedeckungsgrad in Achtel und Wolkenuntergrenze
Di, 24.11. 21:30 7(6000m) 8(6900m) 8(9000m)
Di, 24.11. 21:20 7(6000m) 8(6900m) 8(9000m)
Di, 24.11. 21:10 4(6000m) 8(6900m) 8(9000m)
Di, 24.11. 21:00 8(6900m) 8(9000m) 8(9000m)
Di, 24.11. 20:50 8(6900m) 8(9000m) 8(9000m)
Di, 24.11. 20:40 8(6900m) 8(9000m)
Di, 24.11. 20:30 4(7200m) 8(8400m) 8(9000m)
Di, 24.11. 20:00 7(1290m) 8(8700m) 8(9000m)
Di, 24.11. 18:00 8(1260m)
Ortszeit Luftdruck NN (hPa) Tendenz (hPa in 3 Std.)
Di, 24.11. 19:00 1019 - 0,6
Di, 24.11. 13:00 1021 - 0,8
Di, 24.11. 7:00 1022 - 1,0
Di, 24.11. 1:00 1025 - 1,5
Mo, 23.11. 19:00 1027 + 0,4
Mo, 23.11. 13:00 1027 + 0,9
Mo, 23.11. 7:00 1024 + 0,3
Mo, 23.11. 1:00 1023 + 0,1
Ortszeit Luftdruck NN (hPa) Tendenz (hPa in 3 Std.)
Di, 24.11. 21:30 1019 - 0,7
Di, 24.11. 21:20 1019 keine Meldung
Di, 24.11. 21:10 1019 keine Meldung
Di, 24.11. 21:00 1019 - 0,7
Di, 24.11. 20:50 1019 keine Meldung
Di, 24.11. 20:40 1019 keine Meldung
Di, 24.11. 20:30 1019 - 0,7
Di, 24.11. 20:00 1019 - 0,6
Di, 24.11. 18:00 1019 - 0,8
Ortszeit Schneehöhe (cm)
Di, 24.11. 19:00 0
Di, 24.11. 13:00 0
Di, 24.11. 7:00 0
Di, 24.11. 1:00 0
Mo, 23.11. 19:00 0
Mo, 23.11. 13:00 0
Mo, 23.11. 7:00 0
Mo, 23.11. 1:00 0
Ortszeit Schneehöhe (cm)
Di, 24.11. 21:30 0
Di, 24.11. 21:20 0
Di, 24.11. 21:10 0
Di, 24.11. 21:00 0
Di, 24.11. 20:50 0
Di, 24.11. 20:40 0
Di, 24.11. 20:30 0
Di, 24.11. 20:00 0
Di, 24.11. 18:00 -
Link zu dieser Seite / Seite empfehlen

Das Wetter in ...